• Join FlightAware (Why Join?)
  • Login
  • US Flag 
02:09AM EST


 

Airport Tracker/Info


-or-


 

Live Flight TrackerFlight Track Log ✈ ASQ6115 ✈ 2013年07月14日 ✈ KLGA - KCLE

Flight Track Log - Related Links

Times and Time Zones

All times are in EDT time to prevent confusion due to time zone crossing. See the ASQ6115 flight status page for this flight to view local times or setup timezone preferences in your user account.

Time Position Orientation Groundspeed Altitude Reporting Facility
EDT Latitude Longitude Course Direction KTS MPH feet Rate Location/Type
10:55AM 40.8000 -73.9000 275° West 157 181 1,800  Level New York TRACON
10:56AM 40.8500 -73.9500 323° Northwest 228 262 3,600 2,040 Climbing New York TRACON
10:57AM 40.8179 -74.2297 277° West  Level FlightAware Approximate
10:57AM 40.9167 -74.0000 330° Northwest 254 292 5,900  Level New York TRACON
10:58AM 40.8293 -74.3555 277° West  Level FlightAware Approximate
10:58AM 40.9167 -74.0833 270° West 249 287 8,100  Level New York TRACON
10:59AM 40.8392 -74.4815 275° West  Level FlightAware Approximate
10:59AM 40.9167 -74.1833 270° West 271 312 10,100  Level New York TRACON
11:00AM 40.8482 -74.6076 275° West  Level FlightAware Approximate
11:00AM 40.9167 -74.3000 270° West 311 358 11,100  Level New York TRACON
11:01AM 40.9167 -74.4167 270° West 342 394 12,100 900 Climbing New York TRACON
11:02AM 40.9167 -74.5500 270° West 360 414 13,000 900 Climbing New York TRACON
11:03AM 40.9200 -74.6761 272° West 383 441 13,900 960 Climbing New York Center
11:04AM 40.9194 -74.8133 270° West 378 435 15,000 900 Climbing New York Center
11:05AM 40.9194 -74.9369 270° West 378 435 15,800 960 Climbing New York Center
11:06AM 40.9178 -75.0933 269° West 383 441 17,000 1,020 Climbing New York Center
11:07AM 40.9044 -75.2297 263° West 378 435 17,900 660 Climbing New York Center
11:08AM 40.8764 -75.3678 255° West 388 447 18,400 720 Climbing New York Center
11:09AM 40.8439 -75.5028 252° West 393 452 19,400 960 Climbing New York Center
11:10AM 40.8114 -75.6375 252° West 393 452 20,400 960 Climbing New York Center
11:11AM 40.7786 -75.7750 253° West 393 452 21,400 900 Climbing New York Center
11:12AM 40.7453 -75.9150 253° West 398 458 22,300 900 Climbing New York Center
11:13AM 40.7100 -76.0547 252° West 398 458 23,300 960 Climbing New York Center
11:14AM 40.6764 -76.1972 253° West 398 458 24,300 960 Climbing New York Center
11:15AM 40.6783 -76.3397 271° West 388 447 25,300 960 Climbing New York Center
11:16AM 40.7006 -76.4811 282° West 388 447 26,300 960 Climbing New York Center
11:17AM 40.7231 -76.6228 282° West 388 447 27,300 960 Climbing New York Center
11:18AM 40.7431 -76.7642 281° West 394 453 28,300 960 Climbing New York Center
11:19AM 40.7631 -76.9031 281° West 394 453 29,300 900 Climbing New York Center
11:20AM 40.7844 -77.0475 281° West 394 453 30,200 900 Climbing New York Center
11:21AM 40.8036 -77.1944 280° West 394 453 31,200 840 Climbing New York Center
11:22AM 40.8250 -77.3392 281° West 399 459 31,900 300 Climbing New York Center
11:23AM 40.8467 -77.4731 282° West 399 459 31,900  Level New York Center
11:24AM 40.8667 -77.6314 280° West 419 482 31,900  Level New York Center
11:25AM 40.8958 -77.8608 280° West 436 502 31,900  Level Cleveland Center
11:26AM 40.9203 -78.0247 281° West 450 518 31,900  Level Cleveland Center
11:27AM 40.9467 -78.1858 282° West 455 524 31,900  Level Cleveland Center
11:28AM 40.9772 -78.3553 283° West 462 532 32,000  Climbing Cleveland Center
11:29AM 41.0011 -78.5197 281° West 467 537 31,900 -60 Descending Cleveland Center
11:30AM 41.0292 -78.6839 283° West 467 537 31,900  Level Cleveland Center
11:31AM 41.0547 -78.8511 282° West 467 537 31,900  Level Cleveland Center
11:32AM 41.0800 -79.0158 282° West 467 537 31,900  Level Cleveland Center
11:33AM 41.1031 -79.1750 281° West 467 537 31,900 -540 Level Cleveland Center
11:34AM 41.1297 -79.3317 283° West 455 524 30,900 -1,020 Descending Cleveland Center
11:35AM 41.1544 -79.4939 281° West 450 518 29,900 -1,080 Descending Cleveland Center
11:36AM 41.1786 -79.6589 281° West 450 518 28,800 -1,080 Descending Cleveland Center
11:37AM 41.2050 -79.8242 282° West 456 525 27,800 -1,080 Descending Cleveland Center
11:38AM 41.2289 -79.9894 281° West 456 525 26,700 -900 Descending Cleveland Center
11:39AM 41.2547 -80.1578 282° West 461 531 26,100 -1,920 Descending Cleveland Center
11:40AM 41.2800 -80.3206 282° West 466 536 22,900 -3,000 Descending Cleveland Center
11:41AM 41.3117 -80.4781 285° West 461 531 20,200 -2,400 Descending Cleveland Center
11:42AM 41.3556 -80.6192 293° West 431 496 18,200 -1,920 Descending Cleveland Center
11:43AM 41.3950 -80.7547 291° West 404 465 16,400 -2,220 Descending Cleveland Center
11:44AM 41.4364 -80.8906 292° West 399 459 13,800 -2,640 Descending Cleveland Center
11:45AM 41.4611 -80.9711 292° West 389 448 12,100 -2,340 Descending Cleveland Center
11:46AM 41.5022 -81.1100 292° West 374 430 10,000 -1,140 Descending Cleveland Center
11:46AM 41.5100 -81.2208 275° West 346 398 9,900 -60 Descending Cleveland Center
11:47AM 41.4903 -81.3564 259° West 355 409 9,900 -240 Level Cleveland Center
11:49AM 41.4750 -81.4811 261° West 291 335 9,400 -1,140 Descending Cleveland Center
11:50AM 41.4594 -81.5750 258° West 276 318 7,700 -1,320 Descending Cleveland Center
11:51AM 41.4483 -81.6747 262° West 270 311 6,900 -420 Descending Cleveland Center
11:51AM 41.3997 -81.7403 225° Southwest 268 308 6,900 -840 Level Cleveland Center
11:52AM 41.3489 -81.8056 224° Southwest 248 285 5,300 -1,740 Descending Cleveland Center
11:53AM 41.3003 -81.8711 225° Southwest 248 285 3,500 -1,800 Descending Cleveland Center